sensor_id;sensor_type;location;lat;lon;timestamp;temperature;humidity
67598;DHT22;62026;39.230;9.122;2023-04-25T00:01:47;17.80;60.60
67598;DHT22;62026;39.230;9.122;2023-04-25T00:04:13;17.70;60.60
67598;DHT22;62026;39.230;9.122;2023-04-25T00:06:39;17.70;60.60
67598;DHT22;62026;39.230;9.122;2023-04-25T00:09:06;17.70;60.60
67598;DHT22;62026;39.230;9.122;2023-04-25T00:11:36;17.70;60.50
67598;DHT22;62026;39.230;9.122;2023-04-25T00:14:03;17.70;60.40
67598;DHT22;62026;39.230;9.122;2023-04-25T00:16:30;17.70;60.60
67598;DHT22;62026;39.230;9.122;2023-04-25T00:18:59;17.70;60.60
67598;DHT22;62026;39.230;9.122;2023-04-25T00:21:27;17.60;60.70
67598;DHT22;62026;39.230;9.122;2023-04-25T00:23:54;17.60;60.80
67598;DHT22;62026;39.230;9.122;2023-04-25T00:26:21;17.60;60.80
67598;DHT22;62026;39.230;9.122;2023-04-25T00:28:48;17.60;60.90
67598;DHT22;62026;39.230;9.122;2023-04-25T00:31:14;17.60;61.00
67598;DHT22;62026;39.230;9.122;2023-04-25T00:33:40;17.60;61.10
67598;DHT22;62026;39.230;9.122;2023-04-25T00:36:07;17.60;61.20
67598;DHT22;62026;39.230;9.122;2023-04-25T00:38:33;17.60;61.40
67598;DHT22;62026;39.230;9.122;2023-04-25T00:40:59;17.60;61.40
67598;DHT22;62026;39.230;9.122;2023-04-25T00:43:26;17.60;61.30
67598;DHT22;62026;39.230;9.122;2023-04-25T00:45:53;17.60;61.40
67598;DHT22;62026;39.230;9.122;2023-04-25T00:48:22;17.60;61.40
67598;DHT22;62026;39.230;9.122;2023-04-25T00:50:57;17.50;61.40
67598;DHT22;62026;39.230;9.122;2023-04-25T00:53:25;17.50;61.50
67598;DHT22;62026;39.230;9.122;2023-04-25T00:55:53;17.50;61.40
67598;DHT22;62026;39.230;9.122;2023-04-25T00:58:21;17.50;61.50
67598;DHT22;62026;39.230;9.122;2023-04-25T01:00:50;17.50;61.60
67598;DHT22;62026;39.230;9.122;2023-04-25T01:03:20;17.50;61.60
67598;DHT22;62026;39.230;9.122;2023-04-25T01:05:47;17.50;61.70
67598;DHT22;62026;39.230;9.122;2023-04-25T01:08:14;17.40;61.80
67598;DHT22;62026;39.230;9.122;2023-04-25T01:10:40;17.40;61.80
67598;DHT22;62026;39.230;9.122;2023-04-25T01:13:07;17.40;61.80
67598;DHT22;62026;39.230;9.122;2023-04-25T01:15:33;17.40;61.90
67598;DHT22;62026;39.230;9.122;2023-04-25T01:18:01;17.40;62.00
67598;DHT22;62026;39.230;9.122;2023-04-25T01:20:28;17.40;62.10
67598;DHT22;62026;39.230;9.122;2023-04-25T01:22:55;17.40;62.00
67598;DHT22;62026;39.230;9.122;2023-04-25T01:25:22;17.40;62.10
67598;DHT22;62026;39.230;9.122;2023-04-25T01:27:49;17.40;62.10
67598;DHT22;62026;39.230;9.122;2023-04-25T01:30:15;17.40;62.10
67598;DHT22;62026;39.230;9.122;2023-04-25T01:32:42;17.40;62.10
67598;DHT22;62026;39.230;9.122;2023-04-25T01:35:10;17.30;62.20
67598;DHT22;62026;39.230;9.122;2023-04-25T01:37:41;17.30;62.10
67598;DHT22;62026;39.230;9.122;2023-04-25T01:40:11;17.30;62.20
67598;DHT22;62026;39.230;9.122;2023-04-25T01:42:40;17.30;62.20
67598;DHT22;62026;39.230;9.122;2023-04-25T01:45:08;17.30;62.10
67598;DHT22;62026;39.230;9.122;2023-04-25T01:47:37;17.30;62.20
67598;DHT22;62026;39.230;9.122;2023-04-25T01:50:06;17.30;62.10
67598;DHT22;62026;39.230;9.122;2023-04-25T01:52:34;17.30;62.00
67598;DHT22;62026;39.230;9.122;2023-04-25T01:55:04;17.30;61.90
67598;DHT22;62026;39.230;9.122;2023-04-25T01:57:33;17.30;61.90
67598;DHT22;62026;39.230;9.122;2023-04-25T02:00:02;17.20;61.90
67598;DHT22;62026;39.230;9.122;2023-04-25T02:02:37;17.20;61.80
67598;DHT22;62026;39.230;9.122;2023-04-25T02:05:07;17.20;61.80
67598;DHT22;62026;39.230;9.122;2023-04-25T02:07:36;17.10;61.90
67598;DHT22;62026;39.230;9.122;2023-04-25T02:10:03;17.10;61.80
67598;DHT22;62026;39.230;9.122;2023-04-25T02:12:35;17.10;61.80
67598;DHT22;62026;39.230;9.122;2023-04-25T02:15:01;17.10;61.80
67598;DHT22;62026;39.230;9.122;2023-04-25T02:17:41;17.10;61.70
67598;DHT22;62026;39.230;9.122;2023-04-25T02:20:07;17.10;61.60
67598;DHT22;62026;39.230;9.122;2023-04-25T02:22:34;17.10;61.50
67598;DHT22;62026;39.230;9.122;2023-04-25T02:25:01;17.10;61.30
67598;DHT22;62026;39.230;9.122;2023-04-25T02:27:27;17.10;61.30
67598;DHT22;62026;39.230;9.122;2023-04-25T02:29:55;17.00;61.30
67598;DHT22;62026;39.230;9.122;2023-04-25T02:32:21;17.00;61.20
67598;DHT22;62026;39.230;9.122;2023-04-25T02:34:47;17.00;61.20
67598;DHT22;62026;39.230;9.122;2023-04-25T02:37:13;17.00;61.30
67598;DHT22;62026;39.230;9.122;2023-04-25T02:39:39;16.90;61.40
67598;DHT22;62026;39.230;9.122;2023-04-25T02:42:05;17.00;61.30
67598;DHT22;62026;39.230;9.122;2023-04-25T02:44:31;16.90;61.20
67598;DHT22;62026;39.230;9.122;2023-04-25T02:46:57;16.90;61.30
67598;DHT22;62026;39.230;9.122;2023-04-25T02:49:23;16.90;61.40
67598;DHT22;62026;39.230;9.122;2023-04-25T02:51:51;16.90;61.40
67598;DHT22;62026;39.230;9.122;2023-04-25T02:54:17;16.80;61.50
67598;DHT22;62026;39.230;9.122;2023-04-25T02:56:46;16.80;61.60
67598;DHT22;62026;39.230;9.122;2023-04-25T02:59:18;16.80;61.70
67598;DHT22;62026;39.230;9.122;2023-04-25T03:01:44;16.80;61.60
67598;DHT22;62026;39.230;9.122;2023-04-25T03:04:10;16.80;61.70
67598;DHT22;62026;39.230;9.122;2023-04-25T03:06:36;16.80;61.70
67598;DHT22;62026;39.230;9.122;2023-04-25T03:09:02;16.80;61.70
67598;DHT22;62026;39.230;9.122;2023-04-25T03:11:29;16.80;61.80
67598;DHT22;62026;39.230;9.122;2023-04-25T03:13:55;16.70;61.70
67598;DHT22;62026;39.230;9.122;2023-04-25T03:16:23;16.70;61.90
67598;DHT22;62026;39.230;9.122;2023-04-25T03:18:49;16.70;62.00
67598;DHT22;62026;39.230;9.122;2023-04-25T03:21:17;16.70;62.00
67598;DHT22;62026;39.230;9.122;2023-04-25T03:23:43;16.70;62.00
67598;DHT22;62026;39.230;9.122;2023-04-25T03:26:09;16.70;62.10
67598;DHT22;62026;39.230;9.122;2023-04-25T03:28:35;16.70;62.10
67598;DHT22;62026;39.230;9.122;2023-04-25T03:31:01;16.70;62.10
67598;DHT22;62026;39.230;9.122;2023-04-25T03:33:27;16.70;62.30
67598;DHT22;62026;39.230;9.122;2023-04-25T03:35:53;16.60;62.40
67598;DHT22;62026;39.230;9.122;2023-04-25T03:38:20;16.60;62.40
67598;DHT22;62026;39.230;9.122;2023-04-25T03:40:46;16.60;62.60
67598;DHT22;62026;39.230;9.122;2023-04-25T03:43:32;16.60;62.80
67598;DHT22;62026;39.230;9.122;2023-04-25T03:46:03;16.70;62.80
67598;DHT22;62026;39.230;9.122;2023-04-25T03:48:29;16.60;62.90
67598;DHT22;62026;39.230;9.122;2023-04-25T03:50:55;16.60;62.90
67598;DHT22;62026;39.230;9.122;2023-04-25T03:53:21;16.60;63.00
67598;DHT22;62026;39.230;9.122;2023-04-25T03:56:22;16.60;63.10
67598;DHT22;62026;39.230;9.122;2023-04-25T03:58:59;16.60;63.20
67598;DHT22;62026;39.230;9.122;2023-04-25T04:01:27;16.60;63.30
67598;DHT22;62026;39.230;9.122;2023-04-25T04:03:54;16.60;63.30
67598;DHT22;62026;39.230;9.122;2023-04-25T04:06:20;16.60;63.40
67598;DHT22;62026;39.230;9.122;2023-04-25T04:08:50;16.60;63.50
67598;DHT22;62026;39.230;9.122;2023-04-25T04:11:16;16.60;63.60
67598;DHT22;62026;39.230;9.122;2023-04-25T04:13:42;16.50;63.60
67598;DHT22;62026;39.230;9.122;2023-04-25T04:16:08;16.50;63.70
67598;DHT22;62026;39.230;9.122;2023-04-25T04:18:34;16.50;63.70
67598;DHT22;62026;39.230;9.122;2023-04-25T04:21:01;16.50;63.90
67598;DHT22;62026;39.230;9.122;2023-04-25T04:23:30;16.50;63.90
67598;DHT22;62026;39.230;9.122;2023-04-25T04:25:57;16.50;64.00
67598;DHT22;62026;39.230;9.122;2023-04-25T04:28:23;16.50;64.10
67598;DHT22;62026;39.230;9.122;2023-04-25T04:31:12;16.40;64.20
67598;DHT22;62026;39.230;9.122;2023-04-25T04:33:38;16.50;64.10
67598;DHT22;62026;39.230;9.122;2023-04-25T04:36:05;16.40;64.20
67598;DHT22;62026;39.230;9.122;2023-04-25T04:38:33;16.40;64.40
67598;DHT22;62026;39.230;9.122;2023-04-25T04:41:02;16.40;64.50
67598;DHT22;62026;39.230;9.122;2023-04-25T04:43:40;16.40;64.60
67598;DHT22;62026;39.230;9.122;2023-04-25T04:46:28;16.40;64.70
67598;DHT22;62026;39.230;9.122;2023-04-25T04:49:18;16.40;64.70
67598;DHT22;62026;39.230;9.122;2023-04-25T04:52:03;16.40;64.80
67598;DHT22;62026;39.230;9.122;2023-04-25T04:54:35;16.40;65.00
67598;DHT22;62026;39.230;9.122;2023-04-25T04:57:14;16.40;65.10
67598;DHT22;62026;39.230;9.122;2023-04-25T05:00:12;16.40;65.10
67598;DHT22;62026;39.230;9.122;2023-04-25T05:02:55;16.40;65.20
67598;DHT22;62026;39.230;9.122;2023-04-25T05:05:41;16.50;65.20
67598;DHT22;62026;39.230;9.122;2023-04-25T05:08:29;16.50;65.20
67598;DHT22;62026;39.230;9.122;2023-04-25T05:11:25;16.50;65.20
67598;DHT22;62026;39.230;9.122;2023-04-25T05:14:13;16.50;65.30
67598;DHT22;62026;39.230;9.122;2023-04-25T05:17:03;16.50;65.20
67598;DHT22;62026;39.230;9.122;2023-04-25T05:19:39;16.50;65.30
67598;DHT22;62026;39.230;9.122;2023-04-25T05:22:37;16.60;65.20
67598;DHT22;62026;39.230;9.122;2023-04-25T05:25:23;16.50;65.30
67598;DHT22;62026;39.230;9.122;2023-04-25T05:28:10;16.50;65.30
67598;DHT22;62026;39.230;9.122;2023-04-25T05:31:00;16.60;65.10
67598;DHT22;62026;39.230;9.122;2023-04-25T05:33:29;16.60;65.00
67598;DHT22;62026;39.230;9.122;2023-04-25T05:35:56;16.60;64.90
67598;DHT22;62026;39.230;9.122;2023-04-25T05:38:23;16.60;65.20
67598;DHT22;62026;39.230;9.122;2023-04-25T05:41:04;16.60;65.30
67598;DHT22;62026;39.230;9.122;2023-04-25T05:44:02;16.70;65.20
67598;DHT22;62026;39.230;9.122;2023-04-25T05:46:49;16.70;65.00
67598;DHT22;62026;39.230;9.122;2023-04-25T05:49:15;16.70;64.80
67598;DHT22;62026;39.230;9.122;2023-04-25T05:52:08;16.70;64.70
67598;DHT22;62026;39.230;9.122;2023-04-25T05:54:57;16.80;64.60
67598;DHT22;62026;39.230;9.122;2023-04-25T05:57:24;16.80;64.50
67598;DHT22;62026;39.230;9.122;2023-04-25T05:59:52;16.80;64.40
67598;DHT22;62026;39.230;9.122;2023-04-25T06:02:20;16.90;64.30
67598;DHT22;62026;39.230;9.122;2023-04-25T06:04:51;16.90;64.20
67598;DHT22;62026;39.230;9.122;2023-04-25T06:07:18;17.00;64.00
67598;DHT22;62026;39.230;9.122;2023-04-25T06:09:45;17.00;64.00
67598;DHT22;62026;39.230;9.122;2023-04-25T06:12:11;17.10;63.90
67598;DHT22;62026;39.230;9.122;2023-04-25T06:14:37;17.20;63.70
67598;DHT22;62026;39.230;9.122;2023-04-25T06:17:03;17.20;63.60
67598;DHT22;62026;39.230;9.122;2023-04-25T06:19:35;17.30;63.50
67598;DHT22;62026;39.230;9.122;2023-04-25T06:22:01;17.30;63.20
67598;DHT22;62026;39.230;9.122;2023-04-25T06:24:28;17.40;63.20
67598;DHT22;62026;39.230;9.122;2023-04-25T06:26:55;17.50;63.20
67598;DHT22;62026;39.230;9.122;2023-04-25T06:29:21;17.50;63.10
67598;DHT22;62026;39.230;9.122;2023-04-25T06:31:47;17.50;63.00
67598;DHT22;62026;39.230;9.122;2023-04-25T06:34:13;17.50;62.90
67598;DHT22;62026;39.230;9.122;2023-04-25T06:36:40;17.60;62.70
67598;DHT22;62026;39.230;9.122;2023-04-25T06:39:09;17.60;62.40
67598;DHT22;62026;39.230;9.122;2023-04-25T06:41:35;17.70;62.00
67598;DHT22;62026;39.230;9.122;2023-04-25T06:44:05;17.80;61.80
67598;DHT22;62026;39.230;9.122;2023-04-25T06:46:49;18.00;61.40
67598;DHT22;62026;39.230;9.122;2023-04-25T06:49:15;18.20;60.80
67598;DHT22;62026;39.230;9.122;2023-04-25T06:51:42;18.30;60.40
67598;DHT22;62026;39.230;9.122;2023-04-25T06:54:08;18.50;59.90
67598;DHT22;62026;39.230;9.122;2023-04-25T06:56:40;18.60;59.10
67598;DHT22;62026;39.230;9.122;2023-04-25T06:59:14;18.80;58.50
67598;DHT22;62026;39.230;9.122;2023-04-25T07:01:41;18.90;58.20
67598;DHT22;62026;39.230;9.122;2023-04-25T07:04:15;19.00;57.80
67598;DHT22;62026;39.230;9.122;2023-04-25T07:06:46;19.20;56.60
67598;DHT22;62026;39.230;9.122;2023-04-25T07:09:15;19.40;55.80
67598;DHT22;62026;39.230;9.122;2023-04-25T07:11:45;19.60;55.60
67598;DHT22;62026;39.230;9.122;2023-04-25T07:14:11;19.50;55.10
67598;DHT22;62026;39.230;9.122;2023-04-25T07:16:37;19.50;55.10
67598;DHT22;62026;39.230;9.122;2023-04-25T07:19:03;19.80;54.90
67598;DHT22;62026;39.230;9.122;2023-04-25T07:21:29;19.80;54.90
67598;DHT22;62026;39.230;9.122;2023-04-25T07:23:57;19.80;54.40
67598;DHT22;62026;39.230;9.122;2023-04-25T07:26:29;19.90;54.10
67598;DHT22;62026;39.230;9.122;2023-04-25T07:29:13;20.10;53.60
67598;DHT22;62026;39.230;9.122;2023-04-25T07:31:40;20.20;52.70
67598;DHT22;62026;39.230;9.122;2023-04-25T07:34:06;20.10;52.20
67598;DHT22;62026;39.230;9.122;2023-04-25T07:36:32;20.20;52.20
67598;DHT22;62026;39.230;9.122;2023-04-25T07:38:58;20.50;51.80
67598;DHT22;62026;39.230;9.122;2023-04-25T07:41:24;20.80;51.40
67598;DHT22;62026;39.230;9.122;2023-04-25T07:43:50;20.70;51.00
67598;DHT22;62026;39.230;9.122;2023-04-25T07:46:16;20.70;50.90
67598;DHT22;62026;39.230;9.122;2023-04-25T07:48:42;20.80;50.70
67598;DHT22;62026;39.230;9.122;2023-04-25T07:51:08;20.90;50.20
67598;DHT22;62026;39.230;9.122;2023-04-25T07:53:36;21.00;50.00
67598;DHT22;62026;39.230;9.122;2023-04-25T07:56:07;21.30;49.40
67598;DHT22;62026;39.230;9.122;2023-04-25T07:58:36;21.50;48.90
67598;DHT22;62026;39.230;9.122;2023-04-25T08:01:04;21.60;47.80
67598;DHT22;62026;39.230;9.122;2023-04-25T08:03:48;21.80;47.10
67598;DHT22;62026;39.230;9.122;2023-04-25T08:06:22;21.80;45.60
67598;DHT22;62026;39.230;9.122;2023-04-25T08:09:02;21.80;45.70
67598;DHT22;62026;39.230;9.122;2023-04-25T08:11:34;21.90;45.60
67598;DHT22;62026;39.230;9.122;2023-04-25T08:14:01;22.10;45.80
67598;DHT22;62026;39.230;9.122;2023-04-25T08:16:27;22.30;45.60
67598;DHT22;62026;39.230;9.122;2023-04-25T08:18:55;22.20;45.40
67598;DHT22;62026;39.230;9.122;2023-04-25T08:21:21;22.50;45.40
67598;DHT22;62026;39.230;9.122;2023-04-25T08:23:47;22.50;45.10
67598;DHT22;62026;39.230;9.122;2023-04-25T08:26:21;22.30;45.10
67598;DHT22;62026;39.230;9.122;2023-04-25T08:28:50;22.50;45.10
67598;DHT22;62026;39.230;9.122;2023-04-25T08:31:16;22.50;44.90
67598;DHT22;62026;39.230;9.122;2023-04-25T08:33:53;22.60;44.70
67598;DHT22;62026;39.230;9.122;2023-04-25T08:36:27;22.60;44.90
67598;DHT22;62026;39.230;9.122;2023-04-25T08:38:54;22.60;45.00
67598;DHT22;62026;39.230;9.122;2023-04-25T08:41:21;22.40;45.30
67598;DHT22;62026;39.230;9.122;2023-04-25T08:43:49;22.40;45.80
67598;DHT22;62026;39.230;9.122;2023-04-25T08:46:18;22.50;45.60
67598;DHT22;62026;39.230;9.122;2023-04-25T08:49:11;22.70;45.20
67598;DHT22;62026;39.230;9.122;2023-04-25T08:51:45;23.10;44.60
67598;DHT22;62026;39.230;9.122;2023-04-25T08:54:20;22.90;44.80
67598;DHT22;62026;39.230;9.122;2023-04-25T08:56:51;22.90;44.60
67598;DHT22;62026;39.230;9.122;2023-04-25T08:59:18;23.20;44.20
67598;DHT22;62026;39.230;9.122;2023-04-25T09:01:45;23.50;43.90
67598;DHT22;62026;39.230;9.122;2023-04-25T09:04:12;23.40;43.50
67598;DHT22;62026;39.230;9.122;2023-04-25T09:06:40;23.50;43.80
67598;DHT22;62026;39.230;9.122;2023-04-25T09:09:08;23.60;43.70
67598;DHT22;62026;39.230;9.122;2023-04-25T09:11:36;23.70;43.40
67598;DHT22;62026;39.230;9.122;2023-04-25T09:14:14;23.60;43.00
67598;DHT22;62026;39.230;9.122;2023-04-25T09:20:09;23.30;43.40
67598;DHT22;62026;39.230;9.122;2023-04-25T09:22:37;23.60;43.40
67598;DHT22;62026;39.230;9.122;2023-04-25T09:25:13;23.60;43.20
67598;DHT22;62026;39.230;9.122;2023-04-25T09:27:52;23.70;43.10
67598;DHT22;62026;39.230;9.122;2023-04-25T09:30:31;23.60;42.70
67598;DHT22;62026;39.230;9.122;2023-04-25T09:33:11;23.80;42.50
67598;DHT22;62026;39.230;9.122;2023-04-25T09:35:43;24.00;42.40
67598;DHT22;62026;39.230;9.122;2023-04-25T09:38:22;24.20;42.10
67598;DHT22;62026;39.230;9.122;2023-04-25T09:40:54;24.30;42.00
67598;DHT22;62026;39.230;9.122;2023-04-25T09:43:45;24.10;42.40
67598;DHT22;62026;39.230;9.122;2023-04-25T09:46:12;24.20;42.50
67598;DHT22;62026;39.230;9.122;2023-04-25T09:48:50;24.00;42.90
67598;DHT22;62026;39.230;9.122;2023-04-25T09:51:25;24.20;42.90
67598;DHT22;62026;39.230;9.122;2023-04-25T09:53:53;24.30;42.90
67598;DHT22;62026;39.230;9.122;2023-04-25T09:56:51;24.30;43.00
67598;DHT22;62026;39.230;9.122;2023-04-25T09:59:20;24.40;43.10
67598;DHT22;62026;39.230;9.122;2023-04-25T10:01:49;24.50;43.20
67598;DHT22;62026;39.230;9.122;2023-04-25T10:04:28;24.40;43.10
67598;DHT22;62026;39.230;9.122;2023-04-25T10:07:18;24.40;43.10
67598;DHT22;62026;39.230;9.122;2023-04-25T10:09:48;24.40;43.10
67598;DHT22;62026;39.230;9.122;2023-04-25T10:12:17;24.60;43.30
67598;DHT22;62026;39.230;9.122;2023-04-25T10:14:44;24.50;43.50
67598;DHT22;62026;39.230;9.122;2023-04-25T10:17:12;24.60;43.60
67598;DHT22;62026;39.230;9.122;2023-04-25T10:19:39;24.60;43.60
67598;DHT22;62026;39.230;9.122;2023-04-25T10:22:08;24.50;43.40
67598;DHT22;62026;39.230;9.122;2023-04-25T10:24:39;24.50;43.50
67598;DHT22;62026;39.230;9.122;2023-04-25T10:27:07;24.60;43.50
67598;DHT22;62026;39.230;9.122;2023-04-25T10:29:35;24.60;43.60
67598;DHT22;62026;39.230;9.122;2023-04-25T10:32:02;24.70;43.70
67598;DHT22;62026;39.230;9.122;2023-04-25T10:34:46;24.70;43.90
67598;DHT22;62026;39.230;9.122;2023-04-25T10:37:15;24.60;44.10
67598;DHT22;62026;39.230;9.122;2023-04-25T10:39:41;24.80;44.10
67598;DHT22;62026;39.230;9.122;2023-04-25T10:42:08;24.70;44.00
67598;DHT22;62026;39.230;9.122;2023-04-25T10:44:37;24.50;44.00
67598;DHT22;62026;39.230;9.122;2023-04-25T10:47:07;24.40;44.30
67598;DHT22;62026;39.230;9.122;2023-04-25T10:49:36;24.10;44.80
67598;DHT22;62026;39.230;9.122;2023-04-25T10:52:13;24.00;44.90
67598;DHT22;62026;39.230;9.122;2023-04-25T10:57:32;24.30;44.80
67598;DHT22;62026;39.230;9.122;2023-04-25T11:00:18;24.50;44.00
67598;DHT22;62026;39.230;9.122;2023-04-25T11:02:48;24.50;42.00
67598;DHT22;62026;39.230;9.122;2023-04-25T11:05:29;24.10;42.00
67598;DHT22;62026;39.230;9.122;2023-04-25T11:07:56;24.10;42.00
67598;DHT22;62026;39.230;9.122;2023-04-25T11:10:27;24.10;41.40
67598;DHT22;62026;39.230;9.122;2023-04-25T11:12:55;24.10;41.40
67598;DHT22;62026;39.230;9.122;2023-04-25T11:15:22;23.90;41.70
67598;DHT22;62026;39.230;9.122;2023-04-25T11:17:50;23.90;41.50
67598;DHT22;62026;39.230;9.122;2023-04-25T11:20:16;24.00;41.40
67598;DHT22;62026;39.230;9.122;2023-04-25T11:22:45;24.20;41.10
67598;DHT22;62026;39.230;9.122;2023-04-25T11:25:13;24.40;41.10
67598;DHT22;62026;39.230;9.122;2023-04-25T11:27:55;24.40;40.80
67598;DHT22;62026;39.230;9.122;2023-04-25T11:30:23;24.50;41.70
67598;DHT22;62026;39.230;9.122;2023-04-25T11:32:51;24.50;42.50
67598;DHT22;62026;39.230;9.122;2023-04-25T11:35:19;24.50;43.00
67598;DHT22;62026;39.230;9.122;2023-04-25T11:37:48;24.40;43.30
67598;DHT22;62026;39.230;9.122;2023-04-25T11:40:15;24.10;43.70
67598;DHT22;62026;39.230;9.122;2023-04-25T11:42:46;24.00;44.20
67598;DHT22;62026;39.230;9.122;2023-04-25T11:45:13;24.00;45.40
67598;DHT22;62026;39.230;9.122;2023-04-25T11:47:40;24.00;45.40
67598;DHT22;62026;39.230;9.122;2023-04-25T11:50:07;23.70;45.90
67598;DHT22;62026;39.230;9.122;2023-04-25T11:52:42;23.80;46.30
67598;DHT22;62026;39.230;9.122;2023-04-25T11:55:09;23.90;45.20
67598;DHT22;62026;39.230;9.122;2023-04-25T11:57:40;23.90;45.30
67598;DHT22;62026;39.230;9.122;2023-04-25T12:00:15;23.80;45.50
67598;DHT22;62026;39.230;9.122;2023-04-25T12:02:44;23.70;45.20
67598;DHT22;62026;39.230;9.122;2023-04-25T12:05:25;23.70;45.50
67598;DHT22;62026;39.230;9.122;2023-04-25T12:07:53;23.60;45.60
67598;DHT22;62026;39.230;9.122;2023-04-25T12:10:20;23.50;45.40
67598;DHT22;62026;39.230;9.122;2023-04-25T12:12:47;23.40;45.80
67598;DHT22;62026;39.230;9.122;2023-04-25T12:15:23;23.50;45.30
67598;DHT22;62026;39.230;9.122;2023-04-25T12:17:52;23.50;45.40
67598;DHT22;62026;39.230;9.122;2023-04-25T12:20:24;23.50;44.90
67598;DHT22;62026;39.230;9.122;2023-04-25T12:22:51;23.40;45.10
67598;DHT22;62026;39.230;9.122;2023-04-25T12:25:35;23.50;45.20
67598;DHT22;62026;39.230;9.122;2023-04-25T12:28:22;23.30;45.20
67598;DHT22;62026;39.230;9.122;2023-04-25T12:31:05;23.20;45.10
67598;DHT22;62026;39.230;9.122;2023-04-25T12:33:36;23.20;45.40
67598;DHT22;62026;39.230;9.122;2023-04-25T12:36:06;23.40;45.10
67598;DHT22;62026;39.230;9.122;2023-04-25T12:38:38;23.40;45.60
67598;DHT22;62026;39.230;9.122;2023-04-25T12:41:06;23.40;45.40
67598;DHT22;62026;39.230;9.122;2023-04-25T12:43:33;23.40;45.30
67598;DHT22;62026;39.230;9.122;2023-04-25T12:45:59;23.50;45.50
67598;DHT22;62026;39.230;9.122;2023-04-25T12:48:26;23.70;44.80
67598;DHT22;62026;39.230;9.122;2023-04-25T12:50:52;23.60;45.10
67598;DHT22;62026;39.230;9.122;2023-04-25T12:53:22;23.60;44.90
67598;DHT22;62026;39.230;9.122;2023-04-25T12:55:51;23.70;45.20
67598;DHT22;62026;39.230;9.122;2023-04-25T12:58:18;23.90;44.80
67598;DHT22;62026;39.230;9.122;2023-04-25T13:00:46;24.10;44.20
67598;DHT22;62026;39.230;9.122;2023-04-25T13:03:12;24.00;44.60
67598;DHT22;62026;39.230;9.122;2023-04-25T13:05:38;24.10;43.50
67598;DHT22;62026;39.230;9.122;2023-04-25T13:08:04;24.20;43.10
67598;DHT22;62026;39.230;9.122;2023-04-25T13:10:31;24.20;43.50
67598;DHT22;62026;39.230;9.122;2023-04-25T13:12:59;24.30;42.40
67598;DHT22;62026;39.230;9.122;2023-04-25T13:15:26;24.30;42.30
67598;DHT22;62026;39.230;9.122;2023-04-25T13:17:53;24.50;42.60
67598;DHT22;62026;39.230;9.122;2023-04-25T13:20:19;24.60;42.70
67598;DHT22;62026;39.230;9.122;2023-04-25T13:22:47;24.60;41.90
67598;DHT22;62026;39.230;9.122;2023-04-25T13:25:13;24.50;42.10
67598;DHT22;62026;39.230;9.122;2023-04-25T13:27:39;24.60;42.10
67598;DHT22;62026;39.230;9.122;2023-04-25T13:30:06;24.80;42.00
67598;DHT22;62026;39.230;9.122;2023-04-25T13:32:34;24.80;41.80
67598;DHT22;62026;39.230;9.122;2023-04-25T13:35:05;24.60;41.70
67598;DHT22;62026;39.230;9.122;2023-04-25T13:37:32;24.60;41.60
67598;DHT22;62026;39.230;9.122;2023-04-25T13:40:00;24.30;42.10
67598;DHT22;62026;39.230;9.122;2023-04-25T13:42:30;24.20;42.20
67598;DHT22;62026;39.230;9.122;2023-04-25T13:44:57;24.10;42.40
67598;DHT22;62026;39.230;9.122;2023-04-25T13:47:23;24.10;42.40
67598;DHT22;62026;39.230;9.122;2023-04-25T13:49:50;24.10;42.30
67598;DHT22;62026;39.230;9.122;2023-04-25T13:52:16;24.20;42.10
67598;DHT22;62026;39.230;9.122;2023-04-25T13:54:42;24.10;42.20
67598;DHT22;62026;39.230;9.122;2023-04-25T13:57:08;24.10;42.30
67598;DHT22;62026;39.230;9.122;2023-04-25T13:59:34;24.10;42.10
67598;DHT22;62026;39.230;9.122;2023-04-25T14:02:00;24.20;42.20
67598;DHT22;62026;39.230;9.122;2023-04-25T14:04:27;24.10;41.90
67598;DHT22;62026;39.230;9.122;2023-04-25T14:06:53;24.10;42.30
67598;DHT22;62026;39.230;9.122;2023-04-25T14:09:19;24.00;42.10
67598;DHT22;62026;39.230;9.122;2023-04-25T14:11:51;24.00;42.20
67598;DHT22;62026;39.230;9.122;2023-04-25T14:14:21;24.00;42.20
67598;DHT22;62026;39.230;9.122;2023-04-25T14:16:48;24.10;42.60
67598;DHT22;62026;39.230;9.122;2023-04-25T14:19:16;24.00;42.60
67598;DHT22;62026;39.230;9.122;2023-04-25T14:21:46;24.00;42.50
67598;DHT22;62026;39.230;9.122;2023-04-25T14:24:12;24.00;42.80
67598;DHT22;62026;39.230;9.122;2023-04-25T14:26:39;24.00;43.00
67598;DHT22;62026;39.230;9.122;2023-04-25T14:29:06;24.10;43.20
67598;DHT22;62026;39.230;9.122;2023-04-25T14:31:34;24.10;42.80
67598;DHT22;62026;39.230;9.122;2023-04-25T14:34:01;24.10;42.60
67598;DHT22;62026;39.230;9.122;2023-04-25T14:36:31;24.10;42.90
67598;DHT22;62026;39.230;9.122;2023-04-25T14:38:58;24.00;43.20
67598;DHT22;62026;39.230;9.122;2023-04-25T14:41:25;24.00;43.20
67598;DHT22;62026;39.230;9.122;2023-04-25T14:43:52;24.10;43.00
67598;DHT22;62026;39.230;9.122;2023-04-25T14:46:19;24.10;42.80
67598;DHT22;62026;39.230;9.122;2023-04-25T14:48:46;24.20;42.90
67598;DHT22;62026;39.230;9.122;2023-04-25T14:51:12;24.10;43.20
67598;DHT22;62026;39.230;9.122;2023-04-25T14:53:40;24.10;43.10
67598;DHT22;62026;39.230;9.122;2023-04-25T14:56:07;24.20;43.30
67598;DHT22;62026;39.230;9.122;2023-04-25T14:58:34;24.10;43.30
67598;DHT22;62026;39.230;9.122;2023-04-25T15:01:00;24.10;42.80
67598;DHT22;62026;39.230;9.122;2023-04-25T15:03:27;24.10;42.80
67598;DHT22;62026;39.230;9.122;2023-04-25T15:05:55;24.20;42.80
67598;DHT22;62026;39.230;9.122;2023-04-25T15:08:21;24.00;43.10
67598;DHT22;62026;39.230;9.122;2023-04-25T15:10:47;24.00;43.50
67598;DHT22;62026;39.230;9.122;2023-04-25T15:13:13;24.00;43.60
67598;DHT22;62026;39.230;9.122;2023-04-25T15:15:41;23.90;43.50
67598;DHT22;62026;39.230;9.122;2023-04-25T15:18:07;24.00;43.20
67598;DHT22;62026;39.230;9.122;2023-04-25T15:20:33;23.90;43.50
67598;DHT22;62026;39.230;9.122;2023-04-25T15:23:00;23.80;43.60
67598;DHT22;62026;39.230;9.122;2023-04-25T15:25:28;23.80;44.00
67598;DHT22;62026;39.230;9.122;2023-04-25T15:27:54;23.90;43.90
67598;DHT22;62026;39.230;9.122;2023-04-25T15:30:21;23.90;43.90
67598;DHT22;62026;39.230;9.122;2023-04-25T15:32:47;23.90;43.80
67598;DHT22;62026;39.230;9.122;2023-04-25T15:35:14;24.00;44.00
67598;DHT22;62026;39.230;9.122;2023-04-25T15:37:40;24.00;44.00
67598;DHT22;62026;39.230;9.122;2023-04-25T15:40:13;24.10;43.90
67598;DHT22;62026;39.230;9.122;2023-04-25T15:42:48;24.00;44.30
67598;DHT22;62026;39.230;9.122;2023-04-25T15:45:23;23.90;44.40
67598;DHT22;62026;39.230;9.122;2023-04-25T15:47:55;23.80;44.80
67598;DHT22;62026;39.230;9.122;2023-04-25T15:50:22;23.80;44.90
67598;DHT22;62026;39.230;9.122;2023-04-25T15:52:49;23.80;45.10
67598;DHT22;62026;39.230;9.122;2023-04-25T15:55:17;23.80;45.10